METAR Data
IDs: Format: Raw Decoded Include TAF

Data at: 1333 UTC 14 Dec 2019

PASD 141256Z AUTO 16025G33KT 5SM -RA BR 05/03 A2893 RMK AO2 PK WND 17033/1255 SLP797 T00500033 PNO $
PASD 141007Z AUTO VRB05KT 10SM -RA 04/03 A2907 RMK AO2 PRESFR P0000
PASD 140956Z AUTO 11012G20KT 070V160 9SM -RA BKN015 OVC030 04/02 A2909 RMK AO2 RAB13 SLP853 P0000 T00440022
PASD 140952Z AUTO VRB06G14KT 8SM -RA BKN017 OVC030 04/02 A2909 RMK AO2 RAB13 PRESFR P0000
PASD 140856Z AUTO VRB06KT 10SM OVC030 04/01 A2916 RMK AO2 RAE24 SLP876 P0000 60000 T00440011 400440022 58051
PASD 140817Z AUTO VRB04KT 10SM -RA 04/01 A2920 RMK AO2 P0000 $
PASD 140756Z AUTO VRB04KT 9SM -RA OVC026 03/01 A2921 RMK AO2 RAB04 SLP894 P0000 T00330011
PASD 140724Z AUTO VRB04KT 10SM -RA BKN028 OVC038 04/M01 A2923 RMK AO2 RAB04 P0000
PASD 140656Z AUTO VRB05KT 10SM OVC041 04/M01 A2926 RMK AO2 SLP909 T00391011
PASD 140556Z AUTO 14007KT 10SM FEW043 04/M01 A2931 RMK AO2 SLP927 T00391011 10039 20022 58025
PASD 140456Z AUTO VRB05KT 10SM SCT031 OVC041 03/M02 A2934 RMK AO2 SLP937 T00331022
PASD 140401Z AUTO VRB03KT 10SM 03/M02 A2936 RMK AO2
PASD 140352Z 00000KT 10SM SCT028 BKN047 03/M02 A2937 RMK AO2 LAST
PASD 140256Z 00000KT 10SM SCT028 BKN047 02/M03 A2938 RMK AO2 SLP952 T00221028 56026
PASD 140251Z 00000KT 10SM SCT028 BKN047 03/M03 A2938 RMK AO2
PASD 140156Z 15007KT 10SM 03/M02 A2940 RMK AO2 SLP958 T00331022
PASD 140140Z 14006KT 10SM SCT028 BKN047 03/M02 A2942 RMK AO2
PASD 140056Z 17011KT 10SM FEW028 SCT037 BKN060 04/M02 A2944 RMK AO2 SLP970 T00391022
PASD 132356Z 19003KT 10SM FEW035 FEW050 SCT100 04/M02 A2946 RMK AO2 RAB31E39 SLP978 P0000 6//// T00391017 10039 20022 58007
PASD 132256Z 16004KT 10SM FEW035 SCT080 03/M03 A2948 RMK AO2 SLP985 T00331033
PASD 132211Z 18004KT 10SM FEW038 FEW070 03/M03 A2949 RMK AO2
PASD 132056Z 22004KT 10SM FEW040 03/M03 A2948 RMK AO2 SLP986 T00331033 51011 $
PASD 131956Z 22005KT 10SM FEW036 FEW050 03/M03 A2947 RMK AO2 SLP982 T00281028
PASD 131856Z 27004KT 10SM FEW025 SCT046 03/M03 A2946 RMK AO2 SLP979 T00281028
PASD 131756Z 26006KT 10SM FEW024 SCT055 02/M03 A2945 RMK AO2 SLP975 T00221028 10033 20022 53010
PASD 131556Z 27007KT 10SM SCT050 BKN080 03/M02 A2943 RMK AO2 SLP967 T00281022
PASD 131256Z AUTO 31013KT 10SM FEW055 OVC090 03/M02 A2940 RMK AO2 SLP959 T00331022
PASD 131156Z AUTO 30010KT 10SM 03/M02 A2939 RMK AO2 SLP955 T00331022 10033 20028 51018
PASD 131056Z AUTO 31011KT 10SM 03/M03 A2937 RMK AO2 SLP949 T00331028
PASD 130956Z AUTO 30015KT 10SM 03/M03 A2936 RMK AO2 SLP943 T00331033
PASD 130856Z AUTO 31015KT 10SM 03/M02 A2934 RMK AO2 SLP936 T00331017 400330028 53013
PASD 130756Z AUTO 30014G19KT 10SM 03/M02 A2933 RMK AO2 SLP933 T00331022
PASD 130656Z AUTO 31017G22KT 10SM OVC070 03/M02 A2931 RMK AO2 SLP926 T00331022
PASD 130620Z AUTO 31016G23KT 10SM FEW021 OVC070 03/M01 A2930 RMK AO2
PASD 130613Z AUTO 31018G23KT 10SM BKN021 OVC070 03/M01 A2930 RMK AO2
PASD 130556Z AUTO 31021G24KT 10SM 03/M01 A2930 RMK AO2 SLP923 T00331006 10033 20028 51009
PASD 130401Z AUTO 31017G22KT 10SM SCT020 BKN070 OVC100 03/M01 A2928 RMK AO2
PASD 130356Z 31020G24KT 10SM FEW024 SCT039 BKN048 03/M01 A2928 RMK AO2 SLP917 LAST T00331006
PASD 130353Z 30018G24KT 10SM FEW024 SCT039 BKN048 03/M01 A2928 RMK AO2 LAST
PASD 130352Z 30018KT 10SM FEW024 SCT039 BKN048 03/M01 A2928 RMK AO2 LAST
PASD 130256Z 31020G25KT 10SM FEW024 SCT039 BKN048 03/M01 A2927 RMK AO2 PK WND 31028/0206 SLP914 T00331006 53007
PASD 130253Z 31020G25KT 10SM FEW024 SCT039 BKN048 03/M01 A2927 RMK AO2 PK WND 31028/0206
PASD 130215Z 31019G28KT 10SM FEW024 SCT029 BKN050 03/00 A2927 RMK AO2 PK WND 31028/0206
PASD 130152Z 31015G24KT 10SM FEW024 SCT029 BKN050 03/00 A2926 RMK AO2 PK WND 31026/0105